Time;durP1;ratioP1;P1;durP2;ratioP2;P2;SDS_P1;SDS_P2;PMS_P1;PMS_P2;Temp;Humidity;BMP_temperature;BMP_pressure;BME280_temperature;BME280_humidity;BME280_pressure;Samples;Min_cycle;Max_cycle;Signal;HPM_P1;HPM_P2
2022/03/27 00:00:32;;;;;;;18.85;8.82;;;;;;;9.76;46.64;99641.94;4380109;32;20542;-70
2022/03/27 00:03:00;;;;;;;19.00;8.73;;;;;;;9.74;46.89;99641.19;4380276;32;20579;-70
2022/03/27 00:05:28;;;;;;;15.48;8.38;;;;;;;9.85;46.66;99642.22;4380149;32;20074;-70
2022/03/27 00:07:55;;;;;;;24.85;10.20;;;;;;;9.65;47.11;99631.41;4380207;32;20121;-70
2022/03/27 00:10:22;;;;;;;19.12;9.68;;;;;;;9.62;47.23;99626.38;4380185;32;20138;-70
2022/03/27 00:12:49;;;;;;;17.12;8.05;;;;;;;9.61;47.16;99636.97;4380313;32;20409;-70
2022/03/27 00:15:17;;;;;;;21.67;8.73;;;;;;;9.48;47.60;99622.16;4380140;32;20083;-70
2022/03/27 00:17:44;;;;;;;24.67;9.63;;;;;;;9.71;47.17;99633.56;4366474;32;20627;-70
2022/03/27 00:20:15;;;;;;;22.35;9.00;;;;;;;9.74;47.23;99622.88;4380097;32;20117;-70
2022/03/27 00:22:42;;;;;;;18.58;8.05;;;;;;;9.69;47.57;99629.38;4380156;32;20113;-70
2022/03/27 00:25:09;;;;;;;20.80;9.50;;;;;;;9.76;47.54;99628.00;4380186;32;20145;-70
2022/03/27 00:27:36;;;;;;;20.58;8.50;;;;;;;9.67;48.02;99636.53;4379653;32;20087;-70
2022/03/27 00:30:07;;;;;;;15.82;8.80;;;;;;;9.76;47.99;99631.47;4380366;32;20392;-70
2022/03/27 00:32:35;;;;;;;21.25;9.50;;;;;;;9.93;47.77;99621.53;4379920;32;20090;-70
2022/03/27 00:35:02;;;;;;;19.50;8.23;;;;;;;10.01;47.69;99623.59;4379936;32;20121;-70
2022/03/27 00:37:29;;;;;;;19.08;8.00;;;;;;;10.12;47.44;99627.09;4379777;32;20095;-70
2022/03/27 00:39:56;;;;;;;16.17;8.00;;;;;;;10.05;47.60;99635.53;4380045;32;20392;-70
2022/03/27 00:42:23;;;;;;;16.58;7.00;;;;;;;10.14;47.33;99627.00;4379985;32;20086;-70
2022/03/27 00:44:50;;;;;;;19.45;9.13;;;;;;;10.08;47.44;99623.06;4379967;32;20460;-70
2022/03/27 00:47:18;;;;;;;25.05;9.10;;;;;;;10.03;47.31;99633.03;4380034;32;20118;-70
2022/03/27 00:49:45;;;;;;;24.50;7.87;;;;;;;9.93;47.59;99629.41;4379837;32;20087;-70
2022/03/27 00:52:12;;;;;;;18.10;7.82;;;;;;;9.99;47.39;99635.97;4379898;32;20091;-70
2022/03/27 00:54:39;;;;;;;24.33;9.13;;;;;;;9.99;47.30;99634.19;4379832;32;20461;-70
2022/03/27 00:57:07;;;;;;;20.58;8.20;;;;;;;9.77;47.77;99634.91;4379622;32;20453;-70
2022/03/27 00:59:34;;;;;;;20.17;7.82;;;;;;;9.79;47.91;99635.63;4379675;32;20444;-70
2022/03/27 01:02:02;;;;;;;18.55;8.93;;;;;;;9.87;47.86;99638.56;4379626;32;20118;-70
2022/03/27 01:04:29;;;;;;;20.23;8.80;;;;;;;9.83;48.06;99637.09;4379785;32;20138;-70
2022/03/27 01:06:57;;;;;;;17.12;8.48;;;;;;;9.85;48.08;99644.84;4379730;32;20108;-70
2022/03/27 01:09:36;;;;;;;21.70;8.82;;;;;;;9.84;48.20;99643.16;4379718;32;20137;-70
2022/03/27 01:12:23;;;;;;;20.70;9.25;;;;;;;9.74;48.38;99635.97;4379765;32;20087;-70
2022/03/27 01:14:52;;;;;;;17.92;8.48;;;;;;;9.84;48.20;99645.78;4379690;32;20091;-70
2022/03/27 01:17:22;;;;;;;21.25;9.02;;;;;;;9.64;48.73;99637.56;4366408;32;20102;-70
2022/03/27 01:19:51;;;;;;;23.55;9.80;;;;;;;9.71;48.68;99636.19;4366289;32;20141;-70
2022/03/27 01:22:20;;;;;;;16.92;8.55;;;;;;;9.84;48.42;99637.91;4379927;32;20082;-70
2022/03/27 01:24:48;;;;;;;16.05;8.57;;;;;;;9.80;48.58;99641.72;4379602;32;20141;-70
2022/03/27 01:27:15;;;;;;;20.05;8.07;;;;;;;9.76;48.67;99638.47;4379626;32;20167;-70
2022/03/27 01:29:43;;;;;;;24.67;9.05;;;;;;;9.66;48.85;99635.69;4379529;32;20611;-70
2022/03/27 01:32:14;;;;;;;18.27;8.45;;;;;;;9.66;48.96;99640.94;4379455;32;20082;-70
2022/03/27 01:34:44;;;;;;;22.55;9.27;;;;;;;9.56;49.28;99640.72;4379664;32;20153;-70
2022/03/27 01:37:14;;;;;;;23.08;8.27;;;;;;;9.50;49.61;99641.16;4379498;32;20140;-70
2022/03/27 01:39:42;;;;;;;18.58;8.07;;;;;;;9.66;49.29;99643.53;4378559;32;20242;-70
2022/03/27 01:42:09;;;;;;;20.42;9.10;;;;;;;9.71;49.17;99640.59;4379604;32;20539;-70
2022/03/27 01:44:37;;;;;;;17.83;8.00;;;;;;;9.47;49.93;99641.38;4379395;32;20091;-70
2022/03/27 01:47:04;;;;;;;21.42;9.80;;;;;;;9.56;49.76;99645.13;4379589;32;20086;-70
2022/03/27 01:49:32;;;;;;;22.05;7.97;;;;;;;9.55;49.77;99640.84;4379516;32;20467;-70
2022/03/27 01:51:59;;;;;;;21.58;9.20;;;;;;;9.44;50.15;99644.22;4379737;32;20195;-70
2022/03/27 01:54:26;;;;;;;21.12;9.43;;;;;;;9.50;49.99;99651.63;4379559;32;20079;-70
2022/03/27 01:56:53;;;;;;;23.87;8.95;;;;;;;9.49;50.12;99656.97;4378205;32;20111;-70
2022/03/27 01:59:21;;;;;;;18.00;8.73;;;;;;;9.65;49.56;99660.19;4379395;32;20459;-70
2022/03/27 02:01:49;;;;;;;23.05;9.98;;;;;;;9.49;49.97;99654.34;4379238;32;20083;-70
2022/03/27 02:04:17;;;;;;;21.98;9.38;;;;;;;9.41;50.18;99660.97;4379600;32;20095;-70
2022/03/27 02:06:44;;;;;;;19.02;8.35;;;;;;;9.41;50.30;99657.50;4379339;32;20244;-70
2022/03/27 02:09:12;;;;;;;22.45;11.07;;;;;;;9.51;50.07;99657.72;4379509;32;20094;-70
2022/03/27 02:11:41;;;;;;;24.67;9.30;;;;;;;9.46;50.27;99650.16;4379367;32;20121;-70
2022/03/27 02:14:09;;;;;;;21.00;8.95;;;;;;;9.74;49.64;99664.75;4379355;32;20113;-70
2022/03/27 02:16:37;;;;;;;26.58;9.70;;;;;;;9.61;50.12;99665.75;4379100;32;20165;-70
2022/03/27 02:19:08;;;;;;;32.10;8.93;;;;;;;9.67;50.02;99666.13;4379419;32;20121;-70
2022/03/27 02:21:36;;;;;;;24.08;9.13;;;;;;;9.54;50.26;99658.31;4379279;32;20083;-70
2022/03/27 02:24:04;;;;;;;26.83;9.57;;;;;;;9.54;50.18;99660.94;4379240;32;20106;-70
2022/03/27 02:26:32;;;;;;;25.40;9.07;;;;;;;9.47;50.39;99661.50;4379222;32;20099;-70
2022/03/27 02:29:00;;;;;;;16.98;8.60;;;;;;;9.49;50.32;99664.81;4379200;32;20122;-70
2022/03/27 02:31:27;;;;;;;22.15;9.70;;;;;;;9.43;50.33;99670.47;4379236;32;20086;-70
2022/03/27 02:33:54;;;;;;;20.67;10.10;;;;;;;9.35;50.81;99673.63;4379100;32;20098;-70
2022/03/27 02:36:22;;;;;;;22.70;8.93;;;;;;;9.50;50.59;99671.72;4379030;32;20099;-70
2022/03/27 02:38:49;;;;;;;20.30;8.80;;;;;;;9.55;50.36;99669.62;4379183;32;20168;-70
2022/03/27 02:41:16;;;;;;;20.45;9.05;;;;;;;9.44;50.76;99674.78;4379125;32;20091;-70
2022/03/27 02:43:44;;;;;;;26.25;9.40;;;;;;;9.40;50.93;99677.62;4379083;32;20098;-70
2022/03/27 02:46:11;;;;;;;20.62;9.35;;;;;;;9.64;50.33;99686.44;4378962;32;20172;-70
2022/03/27 02:48:38;;;;;;;28.70;9.73;;;;;;;9.62;50.61;99681.31;4379074;32;20099;-70
2022/03/27 02:51:05;;;;;;;24.17;9.80;;;;;;;9.66;50.64;99685.41;4378738;32;20144;-70
2022/03/27 02:53:33;;;;;;;28.10;10.15;;;;;;;9.79;50.34;99689.75;4378906;32;20105;-70
2022/03/27 02:56:00;;;;;;;28.92;9.60;;;;;;;9.81;50.01;99686.09;4378977;32;20094;-70
2022/03/27 02:58:27;;;;;;;26.42;9.63;;;;;;;9.88;49.92;99694.34;4378808;32;20098;-70
2022/03/27 03:00:55;;;;;;;22.15;10.23;;;;;;;9.87;49.86;99690.03;4378629;32;20159;-70
2022/03/27 03:03:22;;;;;;;21.42;10.05;;;;;;;10.04;49.37;99684.44;4378818;32;20101;-70
2022/03/27 03:05:50;;;;;;;20.10;9.55;;;;;;;9.86;49.78;99693.63;4378723;32;20099;-70
2022/03/27 03:08:18;;;;;;;21.85;9.40;;;;;;;9.87;49.87;99697.88;4365379;32;20106;-70
2022/03/27 03:10:45;;;;;;;18.87;8.77;;;;;;;9.82;49.91;99692.16;4378876;32;20117;-70
2022/03/27 03:13:13;;;;;;;19.83;9.70;;;;;;;9.74;49.90;99690.09;4378616;32;20433;-70
2022/03/27 03:15:42;;;;;;;23.67;10.57;;;;;;;9.73;50.03;99691.84;4378574;32;20098;-70
2022/03/27 03:18:10;;;;;;;25.67;10.05;;;;;;;9.76;49.93;99693.44;4378724;32;20510;-70
2022/03/27 03:20:39;;;;;;;21.05;9.57;;;;;;;9.69;50.18;99698.28;4378637;32;20095;-70
2022/03/27 03:23:08;;;;;;;23.50;9.48;;;;;;;9.81;50.03;99704.41;4378504;32;20099;-70
2022/03/27 03:25:35;;;;;;;23.33;9.75;;;;;;;9.96;49.84;99707.69;4378520;32;20106;-70
2022/03/27 03:28:22;;;;;;;20.08;9.45;;;;;;;9.95;49.90;99704.25;4378562;32;20090;-70
2022/03/27 03:30:50;;;;;;;20.12;9.25;;;;;;;9.82;50.46;99720.94;4378402;32;20113;-70
2022/03/27 03:33:17;;;;;;;26.30;10.13;;;;;;;9.99;50.03;99724.97;4378263;32;20087;-70
2022/03/27 03:35:44;;;;;;;20.92;9.50;;;;;;;9.82;50.36;99720.94;4378248;32;20639;-70
2022/03/27 03:38:11;;;;;;;18.45;8.55;;;;;;;9.80;50.41;99715.00;4378236;32;20492;-70
2022/03/27 03:40:41;;;;;;;22.35;8.70;;;;;;;9.98;49.88;99723.28;4378303;32;20095;-70
2022/03/27 03:43:10;;;;;;;20.65;9.57;;;;;;;9.81;50.23;99716.66;4378038;32;20129;-70
2022/03/27 03:45:37;;;;;;;31.00;12.35;;;;;;;9.91;49.62;99722.91;4378251;32;20144;-70
2022/03/27 03:48:05;;;;;;;21.27;10.52;;;;;;;9.63;50.33;99719.63;4378546;32;20487;-70
2022/03/27 03:50:35;;;;;;;23.05;9.73;;;;;;;9.56;50.67;99728.84;4378226;32;20386;-70
2022/03/27 03:53:03;;;;;;;27.35;9.95;;;;;;;9.41;51.23;99731.56;4378092;32;20095;-70
2022/03/27 03:55:31;;;;;;;21.35;9.85;;;;;;;9.42;51.49;99727.19;4378023;32;20087;-70
2022/03/27 03:57:58;;;;;;;24.40;9.45;;;;;;;9.35;51.72;99737.22;4378301;32;20117;-70
2022/03/27 04:00:25;;;;;;;22.87;9.43;;;;;;;9.33;51.99;99738.28;4377801;32;20082;-70
2022/03/27 04:02:53;;;;;;;21.65;9.27;;;;;;;9.31;52.28;99740.16;4378763;32;20495;-70
2022/03/27 04:05:20;;;;;;;22.98;9.27;;;;;;;9.38;52.27;99747.47;4380205;32;20099;-70
2022/03/27 04:07:47;;;;;;;21.92;8.65;;;;;;;9.12;53.24;99756.28;4380280;32;20094;-70
2022/03/27 04:10:15;;;;;;;29.15;10.68;;;;;;;9.01;53.87;99755.22;4380202;32;20123;-70
2022/03/27 04:12:42;;;;;;;20.80;9.90;;;;;;;8.94;54.41;99761.78;4380154;32;20600;-70
2022/03/27 04:15:09;;;;;;;20.73;9.57;;;;;;;8.95;54.86;99766.06;4380080;32;20095;-70
2022/03/27 04:17:44;;;;;;;20.80;9.45;;;;;;;9.02;54.82;99756.91;4380096;32;20168;-70
2022/03/27 04:20:12;;;;;;;27.98;9.85;;;;;;;9.20;54.25;99769.66;4380325;32;20071;-70
2022/03/27 04:22:43;;;;;;;20.48;9.30;;;;;;;9.17;54.28;99767.25;4380148;32;20082;-70
2022/03/27 04:25:12;;;;;;;23.02;10.35;;;;;;;8.96;54.99;99777.34;4378876;32;20106;-70
2022/03/27 04:27:40;;;;;;;26.12;8.85;;;;;;;8.89;55.44;99776.94;4380100;32;20145;-70
2022/03/27 04:30:09;;;;;;;25.35;9.55;;;;;;;8.88;55.89;99781.31;4378733;32;20091;-70
2022/03/27 04:32:37;;;;;;;23.15;9.65;;;;;;;8.77;56.59;99788.19;4379829;32;20117;-70
2022/03/27 04:35:06;;;;;;;22.92;9.48;;;;;;;8.82;56.78;99786.13;4379888;32;20495;-70
2022/03/27 04:37:43;;;;;;;25.10;9.60;;;;;;;8.82;56.99;99791.34;4379925;32;20425;-70
2022/03/27 04:40:13;;;;;;;23.70;8.95;;;;;;;8.76;57.32;99800.41;4379931;32;20158;-70
2022/03/27 04:42:41;;;;;;;24.83;8.50;;;;;;;8.86;56.93;99805.88;4379755;32;20339;-70
2022/03/27 04:45:10;;;;;;;23.75;9.35;;;;;;;8.91;57.08;99809.03;4379832;32;20153;-70
2022/03/27 04:47:38;;;;;;;22.90;9.80;;;;;;;8.82;57.57;99812.25;4379987;32;20572;-70
2022/03/27 04:50:06;;;;;;;19.10;8.98;;;;;;;9.01;57.38;99825.78;4379780;32;20086;-70
2022/03/27 04:52:33;;;;;;;21.08;9.13;;;;;;;9.01;57.53;99827.56;4379726;32;20082;-70
2022/03/27 04:55:01;;;;;;;23.87;9.07;;;;;;;9.00;57.78;99836.34;4379913;32;20102;-70
2022/03/27 04:57:39;;;;;;;24.30;8.93;;;;;;;9.21;57.17;99829.69;4379663;32;20082;-70
2022/03/27 05:00:11;;;;;;;18.05;9.35;;;;;;;9.05;57.70;99832.50;4379888;32;20163;-70
2022/03/27 05:02:39;;;;;;;23.65;10.68;;;;;;;9.00;57.81;99829.31;4364646;32;20075;-70
2022/03/27 05:05:08;;;;;;;17.98;8.68;;;;;;;8.93;58.27;99843.72;4364829;32;20138;-70
2022/03/27 05:07:36;;;;;;;22.20;9.35;;;;;;;9.18;57.50;99837.72;4364765;32;20109;-70
2022/03/27 05:10:05;;;;;;;18.25;9.75;;;;;;;8.94;58.06;99847.19;4365032;32;20095;-70
2022/03/27 05:12:32;;;;;;;27.60;10.25;;;;;;;8.95;57.99;99847.09;4364716;32;20149;-70
2022/03/27 05:14:59;;;;;;;20.10;8.32;;;;;;;8.95;58.01;99846.22;4364583;32;20098;-70
2022/03/27 05:17:28;;;;;;;21.65;8.70;;;;;;;8.95;58.31;99852.31;4364743;32;20156;-70
2022/03/27 05:19:56;;;;;;;21.70;9.60;;;;;;;9.03;58.12;99852.62;4364669;32;20153;-70
2022/03/27 05:22:23;;;;;;;23.27;9.85;;;;;;;9.14;58.04;99848.50;4364586;32;20083;-71
2022/03/27 05:24:52;;;;;;;22.17;9.02;;;;;;;8.94;58.83;99863.69;4364773;32;20091;-70
2022/03/27 05:27:19;;;;;;;24.48;10.02;;;;;;;8.97;58.96;99858.28;4364651;32;20103;-70
2022/03/27 05:29:46;;;;;;;28.60;10.05;;;;;;;9.28;58.49;99866.72;4364703;32;20095;-70
2022/03/27 05:32:13;;;;;;;21.27;10.82;;;;;;;9.90;56.02;99873.88;4364515;32;20095;-70
2022/03/27 05:34:41;;;;;;;23.70;9.95;;;;;;;10.15;54.99;99876.59;4364530;32;20110;-71
2022/03/27 05:37:08;;;;;;;25.95;11.20;;;;;;;9.87;54.76;99873.25;4364638;32;20134;-70
2022/03/27 05:39:35;;;;;;;19.27;10.07;;;;;;;9.85;55.26;99885.63;4364504;32;20099;-70
2022/03/27 05:42:03;;;;;;;22.83;9.50;;;;;;;9.99;54.81;99888.09;4364359;32;20106;-70
2022/03/27 05:44:30;;;;;;;25.52;10.77;;;;;;;9.95;54.42;99897.13;4364577;32;20099;-70
2022/03/27 05:46:57;;;;;;;24.25;10.63;;;;;;;10.15;53.29;99892.31;4364669;32;20121;-70
2022/03/27 05:49:24;;;;;;;23.98;10.52;;;;;;;10.42;52.35;99903.50;4364498;32;20087;-70
2022/03/27 05:51:51;;;;;;;21.58;9.55;;;;;;;10.25;53.17;99898.56;4364504;32;20370;-70
2022/03/27 05:54:18;;;;;;;19.90;9.63;;;;;;;10.18;53.37;99908.63;4364497;32;20358;-70
2022/03/27 05:56:46;;;;;;;16.67;8.35;;;;;;;10.37;53.30;99905.59;4364508;32;20129;-70
2022/03/27 05:59:13;;;;;;;13.50;7.15;;;;;;;10.69;52.48;99905.09;4364349;32;20453;-70
2022/03/27 06:01:40;;;;;;;18.58;7.30;;;;;;;10.38;53.42;99917.75;4373283;32;20110;-70
2022/03/27 06:04:08;;;;;;;14.40;7.28;;;;;;;10.16;54.19;99926.25;4376815;32;80997;-70
2022/03/27 06:06:35;;;;;;;18.42;7.60;;;;;;;10.19;54.76;99928.66;4379387;32;20258;-70
2022/03/27 06:09:02;;;;;;;18.15;7.15;;;;;;;10.59;54.19;99938.97;4379359;32;20117;-70
2022/03/27 06:11:29;;;;;;;15.13;7.07;;;;;;;10.67;53.34;99933.19;4379325;32;20087;-70
2022/03/27 06:13:57;;;;;;;12.02;6.55;;;;;;;10.52;54.06;99936.91;4379304;32;20086;-70
2022/03/27 06:16:24;;;;;;;14.60;7.37;;;;;;;11.13;52.99;99943.00;4379337;32;20141;-70
2022/03/27 06:18:51;;;;;;;16.52;7.22;;;;;;;11.31;52.76;99950.47;4379129;32;20582;-70
2022/03/27 06:21:18;;;;;;;14.90;7.12;;;;;;;11.56;51.64;99953.91;4379007;32;20079;-71
2022/03/27 06:23:46;;;;;;;15.55;7.43;;;;;;;11.72;51.33;99949.19;4379188;32;20449;-70
2022/03/27 06:26:13;;;;;;;20.20;7.18;;;;;;;11.64;50.75;99946.28;4378443;32;20109;-70
2022/03/27 06:28:40;;;;;;;13.32;6.60;;;;;;;11.47;51.54;99961.50;4379077;32;20086;-70
2022/03/27 06:31:07;;;;;;;15.18;7.37;;;;;;;11.63;51.24;99968.25;4379091;32;20083;-70
2022/03/27 06:33:35;;;;;;;9.32;6.25;;;;;;;11.89;51.59;99961.88;4379125;32;20122;-70
2022/03/27 06:36:02;;;;;;;14.20;7.07;;;;;;;12.11;49.43;99957.63;4379570;32;20149;-70
2022/03/27 06:38:29;;;;;;;13.70;6.12;;;;;;;11.81;50.21;99959.00;4378903;32;20425;-70
2022/03/27 06:40:57;;;;;;;13.00;7.25;;;;;;;11.58;50.53;99967.75;4379191;32;20137;-70
2022/03/27 06:43:24;;;;;;;13.73;7.05;;;;;;;11.38;51.70;99961.34;4379032;32;20125;-71
2022/03/27 06:45:51;;;;;;;11.90;6.75;;;;;;;11.54;52.39;99973.22;4379102;32;20514;-70
2022/03/27 06:48:18;;;;;;;11.27;6.43;;;;;;;11.70;52.21;99977.31;4378979;32;20170;-71
2022/03/27 06:50:46;;;;;;;12.77;6.05;;;;;;;11.90;51.00;99970.59;4379297;32;20110;-70
2022/03/27 06:53:18;;;;;;;13.90;6.47;;;;;;;12.17;49.40;99967.69;4378940;32;20130;-70
2022/03/27 06:55:47;;;;;;;11.07;6.53;;;;;;;11.90;50.40;99971.44;4379005;32;20106;-70
2022/03/27 06:58:14;;;;;;;12.18;7.18;;;;;;;11.93;51.17;99969.53;4378802;32;20086;-70
2022/03/27 07:03:28;;;;;;;10.95;6.70;;;;;;;12.17;51.64;99970.31;4378657;32;20086;-70
2022/03/27 07:05:56;;;;;;;10.40;6.20;;;;;;;12.18;51.20;99979.03;4378778;32;20496;-70
2022/03/27 07:08:23;;;;;;;11.02;6.05;;;;;;;12.29;50.74;99978.19;4378904;32;20090;-70
2022/03/27 07:10:50;;;;;;;10.10;6.78;;;;;;;12.67;50.11;99979.63;4378747;32;20130;-71
2022/03/27 07:13:19;;;;;;;11.80;6.72;;;;;;;12.68;50.12;99978.69;4378555;32;20095;-70
2022/03/27 07:15:46;;;;;;;11.95;6.55;;;;;;;12.65;49.22;99990.28;4365190;32;20106;-71
2022/03/27 07:18:20;;;;;;;11.43;6.95;;;;;;;12.69;49.18;99986.47;4378451;32;20114;-71
2022/03/27 07:20:47;;;;;;;12.63;7.32;;;;;;;12.42;49.83;99978.94;4378627;32;20420;-71
2022/03/27 07:23:19;;;;;;;12.93;6.20;;;;;;;12.50;49.54;99976.53;4378382;32;20179;-70
2022/03/27 07:25:49;;;;;;;14.85;6.72;;;;;;;12.65;50.13;99984.19;4378551;32;20098;-71
2022/03/27 07:28:18;;;;;;;11.05;5.82;;;;;;;12.85;49.50;99985.25;4378450;32;20605;-71
2022/03/27 07:30:46;;;;;;;13.62;5.80;;;;;;;12.75;49.35;99979.88;4378417;32;20145;-71
2022/03/27 07:33:15;;;;;;;11.12;6.70;;;;;;;13.18;50.87;99986.13;4378317;32;20103;-71
2022/03/27 07:35:43;;;;;;;8.88;5.60;;;;;;;13.45;48.88;99993.63;4378591;32;20090;-71
2022/03/27 07:38:10;;;;;;;9.30;5.32;;;;;;;13.79;49.54;99996.09;4379236;32;20121;-70
2022/03/27 07:40:38;;;;;;;10.57;5.90;;;;;;;13.94;47.14;99986.06;4380270;32;20080;-70
2022/03/27 07:43:05;;;;;;;14.87;6.12;;;;;;;13.79;47.79;100001.34;4380520;32;20127;-71
2022/03/27 07:45:33;;;;;;;8.50;5.65;;;;;;;13.62;48.83;99995.69;4380237;32;20117;-71
2022/03/27 07:48:00;;;;;;;10.07;6.05;;;;;;;13.42;48.51;100007.03;4380241;32;20142;-71
2022/03/27 07:50:30;;;;;;;12.65;5.87;;;;;;;13.82;46.77;100009.84;4380169;32;20103;-71
2022/03/27 07:52:59;;;;;;;9.80;6.20;;;;;;;13.68;47.62;100009.31;4380187;32;20126;-70
2022/03/27 07:55:27;;;;;;;10.52;5.78;;;;;;;13.43;47.55;100011.31;4380221;32;20154;-70
2022/03/27 07:57:55;;;;;;;10.52;6.53;;;;;;;13.44;49.14;100011.22;4380217;32;20508;-70
2022/03/27 08:00:23;;;;;;;10.52;5.97;;;;;;;13.49;49.01;100016.09;4380090;32;20448;-71
2022/03/27 08:02:51;;;;;;;9.75;6.15;;;;;;;13.46;48.13;100003.19;4380143;32;20158;-70
2022/03/27 08:05:21;;;;;;;11.85;6.75;;;;;;;13.55;48.77;100012.97;4380375;32;20468;-71
2022/03/27 08:07:49;;;;;;;10.13;6.90;;;;;;;13.99;47.38;100013.72;4380123;32;20091;-70
2022/03/27 08:10:17;;;;;;;13.75;6.05;;;;;;;13.76;46.89;100015.62;4379875;32;20171;-71
2022/03/27 08:12:44;;;;;;;14.40;6.37;;;;;;;13.41;47.97;100010.63;4366515;32;20122;-71
2022/03/27 08:15:11;;;;;;;10.07;5.85;;;;;;;13.23;48.83;100013.75;4380069;32;20480;-71
2022/03/27 08:17:38;;;;;;;10.98;6.72;;;;;;;13.58;48.98;100010.09;4380059;32;20106;-71
2022/03/27 08:20:06;;;;;;;11.90;6.78;;;;;;;13.76;47.32;100007.75;4380038;32;20099;-70
2022/03/27 08:22:33;;;;;;;11.10;6.18;;;;;;;13.34;50.18;100012.91;4379876;32;20520;-71
2022/03/27 08:25:01;;;;;;;16.12;6.78;;;;;;;13.57;50.89;100004.94;4379891;32;20118;-71
2022/03/27 08:27:31;;;;;;;9.77;6.45;;;;;;;14.19;48.21;100004.13;4380051;32;20082;-70
2022/03/27 08:29:59;;;;;;;12.32;7.22;;;;;;;13.98;48.71;100006.78;4379985;32;20437;-71
2022/03/27 08:32:27;;;;;;;12.57;6.30;;;;;;;13.98;47.89;100009.41;4379645;32;20441;-71
2022/03/27 08:34:54;;;;;;;14.30;6.93;;;;;;;14.27;48.62;100000.84;4379865;32;20098;-71
2022/03/27 08:37:21;;;;;;;12.00;6.55;;;;;;;14.20;47.13;99997.91;4379958;32;20121;-71
2022/03/27 08:39:49;;;;;;;10.27;6.15;;;;;;;14.29;46.96;100006.84;4380139;32;20150;-70
2022/03/27 08:42:17;;;;;;;28.30;7.20;;;;;;;14.19;48.48;100006.75;4379779;32;20099;-71
2022/03/27 08:44:45;;;;;;;15.18;5.95;;;;;;;14.52;47.26;100004.03;4379741;32;20102;-71
2022/03/27 08:47:26;;;;;;;8.88;5.85;;;;;;;14.66;47.27;99997.59;4379811;32;20157;-71
2022/03/27 08:50:04;;;;;;;9.73;6.18;;;;;;;14.81;46.62;99998.06;4379663;32;20357;-71
2022/03/27 08:52:54;;;;;;;12.13;6.53;;;;;;;14.75;46.88;100002.06;4366586;32;20111;-71
2022/03/27 08:55:57;;;;;;;14.60;6.37;;;;;;;14.92;46.51;100013.78;4379955;32;20384;-70
2022/03/27 08:58:36;;;;;;;;;;;;;;;15.19;45.38;100017.59;4366811;32;20091;-70
2022/03/27 09:01:04;;;;;;;9.57;5.75;;;;;;;15.23;45.80;100014.56;4379681;32;20437;-71
2022/03/27 09:03:33;;;;;;;10.63;6.32;;;;;;;15.31;45.91;100019.16;4379776;32;20583;-71
2022/03/27 09:06:01;;;;;;;11.43;6.78;;;;;;;15.18;46.58;100027.31;4379563;32;20457;-71
2022/03/27 09:12:07;;;;;;;16.37;6.87;;;;;;;15.57;44.85;100027.34;4379535;32;20101;-71
2022/03/27 09:14:35;;;;;;;11.35;6.40;;;;;;;15.76;44.65;100020.41;4366490;32;20115;-71
2022/03/27 09:17:07;;;;;;;12.80;5.82;;;;;;;14.99;46.35;100017.56;4366298;32;20095;-71
2022/03/27 09:19:54;;;;;;;12.73;6.57;;;;;;;15.14;45.62;100028.56;4379871;32;20086;-71
2022/03/27 09:22:22;;;;;;;16.35;6.60;;;;;;;15.73;43.63;100021.53;4379531;32;20480;-71
2022/03/27 09:24:58;;;;;;;14.93;7.22;;;;;;;16.06;43.86;100021.25;4379497;32;20168;-71
2022/03/27 09:27:31;;;;;;;11.32;6.15;;;;;;;16.01;42.20;100024.31;4379658;32;20107;-71
2022/03/27 09:30:11;;;;;;;15.90;6.65;;;;;;;16.08;43.95;100025.44;4379693;32;20362;-71
2022/03/27 09:32:43;;;;;;;10.65;6.10;;;;;;;15.64;43.53;100021.53;4379588;32;20130;-71
2022/03/27 09:35:17;;;;;;;11.82;6.40;;;;;;;15.90;43.54;100019.19;4379464;32;20107;-71
2022/03/27 09:37:46;;;;;;;12.70;6.75;;;;;;;16.13;42.45;100023.19;4379722;32;20091;-71
2022/03/27 09:40:16;;;;;;;13.68;6.53;;;;;;;16.02;42.42;100017.22;4379540;32;20099;-71
2022/03/27 09:42:43;;;;;;;15.13;6.90;;;;;;;15.47;44.57;100018.59;4379786;32;20110;-71
2022/03/27 09:45:20;;;;;;;12.48;7.03;;;;;;;16.19;42.11;100005.91;4379404;32;20118;-71
2022/03/27 09:47:55;;;;;;;11.27;6.50;;;;;;;16.09;41.79;100021.81;4379699;32;20546;-70
2022/03/27 09:50:49;;;;;;;13.27;6.25;;;;;;;15.33;43.66;100014.56;4379529;32;20078;-71
2022/03/27 09:53:24;;;;;;;10.23;6.25;;;;;;;15.70;43.97;100010.41;4365306;32;20100;-71
2022/03/27 09:55:53;;;;;;;10.45;6.32;;;;;;;15.87;45.06;100014.19;4379392;32;20432;-71
2022/03/27 09:58:43;;;;;;;14.27;7.15;;;;;;;16.11;41.48;100017.22;4379423;32;20416;-71
2022/03/27 10:01:20;;;;;;;8.68;6.12;;;;;;;16.01;41.37;100012.91;4378257;32;20444;-71
2022/03/27 10:04:04;;;;;;;10.95;6.72;;;;;;;16.17;43.85;100012.31;4379390;32;20105;-71
2022/03/27 10:06:38;;;;;;;11.07;6.35;;;;;;;16.70;42.09;100008.25;4379480;32;20146;-71
2022/03/27 10:09:10;;;;;;;12.37;6.50;;;;;;;16.39;41.32;100011.16;4378312;32;20103;-71
2022/03/27 10:11:39;;;;;;;11.93;7.15;;;;;;;16.74;40.98;100010.44;4379400;32;20082;-71
2022/03/27 10:14:07;;;;;;;11.07;6.60;;;;;;;16.59;40.81;100001.34;4379191;32;20082;-71
2022/03/27 10:16:37;;;;;;;8.90;6.25;;;;;;;16.28;42.02;100013.00;4379189;32;20091;-71
2022/03/27 10:19:11;;;;;;;13.65;7.12;;;;;;;16.73;40.49;99997.38;4379239;32;20121;-71
2022/03/27 10:21:42;;;;;;;9.20;6.43;;;;;;;16.12;39.11;100004.81;4379306;32;20105;-71
2022/03/27 10:24:13;;;;;;;13.18;6.20;;;;;;;16.24;41.38;100008.12;4379353;32;20086;-71
2022/03/27 10:26:45;;;;;;;12.70;6.90;;;;;;;16.72;41.28;100001.00;4379537;32;20507;-71
2022/03/27 10:29:14;;;;;;;13.05;6.82;;;;;;;16.12;40.35;100000.37;4379647;32;20117;-71
2022/03/27 10:31:42;;;;;;;13.45;7.00;;;;;;;16.24;40.72;100003.66;4378994;32;20112;-71
2022/03/27 10:34:10;;;;;;;11.90;7.30;;;;;;;16.64;41.60;100004.41;4379210;32;20105;-71
2022/03/27 10:37:00;;;;;;;13.90;7.45;;;;;;;16.23;41.53;100001.16;4379127;32;20438;-71
2022/03/27 10:39:42;;;;;;;11.12;7.03;;;;;;;16.51;41.79;100002.06;4379112;32;20091;-71
2022/03/27 10:42:17;;;;;;;15.95;8.05;;;;;;;16.68;41.46;99988.06;4365801;32;20083;-71
2022/03/27 10:45:02;;;;;;;9.27;6.72;;;;;;;17.02;40.15;99997.25;4365756;32;20137;-71
2022/03/27 10:47:30;;;;;;;10.93;6.90;;;;;;;17.07;40.49;100000.28;4379102;32;20086;-71
2022/03/27 10:50:08;;;;;;;13.13;7.65;;;;;;;16.99;39.84;99997.56;4379010;32;20231;-71
2022/03/27 10:52:43;;;;;;;16.17;7.53;;;;;;;17.19;40.25;100006.22;4379010;32;20094;-71
2022/03/27 10:55:13;;;;;;;12.05;7.62;;;;;;;16.78;39.12;99997.78;4379306;32;20083;-71
2022/03/27 10:57:49;;;;;;;10.60;7.15;;;;;;;16.79;38.27;99996.78;4378790;32;20153;-71
2022/03/27 11:00:37;;;;;;;19.67;8.23;;;;;;;16.90;40.10;99999.28;4378797;32;20090;-71
2022/03/27 11:03:04;;;;;;;11.52;7.43;;;;;;;17.47;38.40;99993.75;4379269;32;20445;-71
2022/03/27 11:05:31;;;;;;;12.20;7.07;;;;;;;16.78;38.36;99982.72;4365450;32;20091;-71
2022/03/27 11:08:17;;;;;;;13.43;7.85;;;;;;;17.23;39.42;99977.59;4378748;32;20358;-71
2022/03/27 11:10:54;;;;;;;10.32;7.22;;;;;;;16.83;37.02;99982.28;4378837;32;20590;-71
2022/03/27 11:13:28;;;;;;;10.88;8.15;;;;;;;16.57;37.44;99982.12;4383803;32;20151;-71
2022/03/27 11:16:11;;;;;;;12.10;7.37;;;;;;;16.92;39.94;99980.59;4383383;32;20116;-71
2022/03/27 11:18:44;;;;;;;15.30;8.35;;;;;;;17.16;39.59;99982.69;4383652;32;20158;-71
2022/03/27 11:24:34;;;;;;;12.37;7.72;;;;;;;17.62;39.33;99974.66;4383702;32;20028;-71
2022/03/27 11:27:01;;;;;;;17.33;8.13;;;;;;;17.71;38.01;99979.88;4383648;32;20413;-71
2022/03/27 11:29:28;;;;;;;11.10;6.75;;;;;;;17.94;37.01;99975.91;4383705;32;20437;-71
2022/03/27 11:32:08;;;;;;;12.63;7.62;;;;;;;17.97;37.36;99967.66;4383525;32;20424;-71
2022/03/27 11:34:36;;;;;;;10.07;7.05;;;;;;;18.22;36.57;99969.47;4383260;32;20086;-71
2022/03/27 11:37:12;;;;;;;12.60;7.87;;;;;;;17.82;38.26;99973.50;4383425;32;20167;-71
2022/03/27 11:39:40;;;;;;;14.00;7.97;;;;;;;17.91;37.10;99969.09;4383186;32;20113;-71
2022/03/27 11:42:33;;;;;;;13.18;7.78;;;;;;;18.19;35.93;99969.78;4383385;32;20164;-71
2022/03/27 11:45:16;;;;;;;15.60;7.15;;;;;;;18.27;37.54;99961.03;4383204;32;20452;-71
2022/03/27 11:47:47;;;;;;;13.75;6.75;;;;;;;18.39;37.27;99954.47;4383310;32;20666;-71